Time;durP1;ratioP1;P1;durP2;ratioP2;P2;SDS_P1;SDS_P2;PMS_P1;PMS_P2;Temp;Humidity;BMP_temperature;BMP_pressure;BME280_temperature;BME280_humidity;BME280_pressure;Samples;Min_cycle;Max_cycle;Signal;HPM_P1;HPM_P2
2022/04/03 00:02:12;;;;;;;;;;;;;;;;;;;;;
2022/04/03 00:05:43;;;;;;;1.40;0.90;;;-0.30;99.90;;;;;;5050696;28;20119;-83
2022/04/03 00:09:06;;;;;;;1.30;0.70;;;-0.30;99.90;;;;;;5041860;28;20152;-83
2022/04/03 00:12:46;;;;;;;;;;;;;;;;;;;;;
2022/04/03 00:15:42;;;;;;;1.70;0.80;;;-0.40;99.90;;;;;;5000053;28;20464;-83
2022/04/03 00:18:51;;;;;;;2.13;0.82;;;-0.40;99.90;;;;;;5047390;28;20049;-82
2022/04/03 00:21:52;;;;;;;2.00;0.90;;;-0.40;99.90;;;;;;5082283;28;20078;-82
2022/04/03 00:24:56;;;;;;;2.28;0.90;;;-0.40;99.90;;;;;;5080508;28;20058;-82
2022/04/03 00:37:22;;;;;;;;;;;;;;;;;;;;;
2022/04/03 00:40:44;;;;;;;1.65;0.90;;;-0.50;99.90;;;;;;5054579;28;20040;-82
2022/04/03 00:44:11;;;;;;;2.00;0.88;;;-0.60;99.90;;;;;;5062718;28;20032;-83
2022/04/03 00:47:12;;;;;;;1.38;0.70;;;-0.60;99.90;;;;;;5058687;28;20493;-82
2022/04/03 00:50:10;;;;;;;;;;;;;;;;;;;;;
2022/04/03 00:53:25;;;;;;;2.05;0.90;;;-0.60;99.90;;;;;;5049577;28;20061;-82
2022/04/03 01:00:40;;;;;;;;;;;;;;;;;;;;;
2022/04/03 01:03:50;;;;;;;0.98;0.50;;;-0.70;99.90;;;;;;5064123;28;20374;-83
2022/04/03 01:07:05;;;;;;;2.05;0.90;;;-0.70;99.90;;;;;;5058261;28;20048;-82
2022/04/03 01:10:05;;;;;;;2.10;0.75;;;-0.80;99.90;;;;;;5070582;28;20045;-82
2022/04/03 01:13:28;;;;;;;;;;;;;;;;;;;;;
2022/04/03 01:16:34;;;;;;;1.60;0.70;;;-0.80;99.90;;;;;;5070257;28;20047;-83
2022/04/03 01:19:51;;;;;;;1.17;0.55;;;-0.70;99.90;;;;;;5070147;28;20041;-83
2022/04/03 01:23:10;;;;;;;0.77;0.60;;;-0.70;99.90;;;;;;5073886;28;20110;-83
2022/04/03 01:26:28;;;;;;;;;;;;;;;;;;;;;
2022/04/03 01:29:48;;;;;;;0.60;0.47;;;-0.70;99.90;;;;;;5033618;28;20400;-84
2022/04/03 01:33:02;;;;;;;1.85;0.70;;;-0.60;99.90;;;;;;5062390;28;20041;-83
2022/04/03 01:36:01;;;;;;;;;;;;;;;;;;;;;
2022/04/03 01:43:08;;;;;;;1.55;0.60;;;-0.50;99.90;;;;;;5092133;28;20039;-84
2022/04/03 01:46:01;;;;;;;;;;;;;;;;;;;;;
2022/04/03 01:49:18;;;;;;;0.30;0.30;;;-0.50;99.90;;;;;;5093348;28;20048;-84
2022/04/03 01:52:36;;;;;;;0.50;0.35;;;-0.40;99.90;;;;;;5041691;28;20511;-83
2022/04/03 01:55:24;;;;;;;1.65;0.40;;;-0.40;99.90;;;;;;5071493;28;20488;-84
2022/04/03 01:58:52;;;;;;;;;;;;;;;;;;;;;
2022/04/03 02:05:38;;;;;;;2.53;0.60;;;-0.20;99.90;;;;;;5088129;28;20397;-83
2022/04/03 02:08:57;;;;;;;0.82;0.40;;;-0.20;99.90;;;;;;5089141;28;20036;-84
2022/04/03 02:12:25;;;;;;;0.93;0.50;;;-0.10;99.90;;;;;;5091238;28;20499;-84
2022/04/03 02:15:38;;;;;;;;;;;;;;;;;;;;;
2022/04/03 02:18:29;;;;;;;0.52;0.30;;;0.00;99.90;;;;;;5092945;28;20044;-84
2022/04/03 02:22:10;;;;;;;;;;;;;;;;;;;;;
2022/04/03 02:28:59;;;;;;;0.30;0.30;;;0.10;99.90;;;;;;5085133;28;20123;-83
2022/04/03 02:32:19;;;;;;;;;;;;;;;;;;;;;
2022/04/03 02:35:23;;;;;;;;;;;;;;;;;;;;;
2022/04/03 02:38:32;;;;;;;;;;;;;;;;;;;;;
2022/04/03 02:41:57;;;;;;;5.43;0.70;;;0.60;99.90;;;;;;5071733;28;20052;-83
2022/04/03 02:45:01;;;;;;;0.55;0.55;;;0.70;99.90;;;;;;5046194;28;20045;-83
2022/04/03 02:48:25;;;;;;;;;;;;;;;;;;;;;
2022/04/03 02:51:50;;;;;;;0.68;0.17;;;0.60;99.90;;;;;;5069426;28;20037;-83
2022/04/03 02:55:04;;;;;;;0.10;0.10;;;0.70;99.90;;;;;;5064271;28;20040;-82
2022/04/03 02:58:18;;;;;;;;;;;;;;;;;;;;;
2022/04/03 03:01:26;;;;;;;;;;;;;;;;;;;;;
2022/04/03 03:04:14;;;;;;;0.10;0.10;;;0.60;99.90;;;;;;5048945;28;20056;-83
2022/04/03 03:11:13;;;;;;;0.13;0.10;;;0.70;99.90;;;;;;5072080;28;20100;-83
2022/04/03 03:14:27;;;;;;;;;;;;;;;;;;;;;
2022/04/03 03:17:20;;;;;;;1.40;0.20;;;0.60;99.90;;;;;;5067141;28;20037;-82
2022/04/03 03:20:34;;;;;;;0.22;0.20;;;0.70;99.90;;;;;;5071653;28;20048;-82
2022/04/03 03:23:39;;;;;;;0.40;0.17;;;0.70;99.90;;;;;;5062695;28;20382;-83
2022/04/03 03:27:01;;;;;;;0.20;0.20;;;0.70;99.90;;;;;;5069393;28;20045;-82
2022/04/03 03:30:40;;;;;;;;;;;;;;;;;;;;;
2022/04/03 03:34:04;;;;;;;;;;;;;;;;;;;;;
2022/04/03 03:37:32;;;;;;;;;;;;;;;;;;;;;
2022/04/03 03:40:42;;;;;;;;;;;;;;;;;;;;;
2022/04/03 03:43:40;;;;;;;0.30;0.20;;;0.70;99.90;;;;;;5088584;28;20040;-84
2022/04/03 03:47:04;;;;;;;0.20;0.20;;;0.70;99.90;;;;;;5088759;28;20488;-83
2022/04/03 03:54:10;;;;;;;0.20;0.20;;;0.70;99.90;;;;;;5088728;28;20165;-83
2022/04/03 03:57:03;;;;;;;0.20;0.10;;;0.70;99.90;;;;;;5035269;28;20040;-83
2022/04/03 04:00:30;;;;;;;1.95;0.13;;;0.70;99.90;;;;;;5090523;28;20047;-81
2022/04/03 04:03:31;;;;;;;0.55;0.20;;;0.70;99.90;;;;;;5086576;28;20488;-81
2022/04/03 04:06:30;;;;;;;0.17;0.17;;;0.70;99.90;;;;;;5028642;28;20566;-83
2022/04/03 04:09:45;;;;;;;0.22;0.13;;;0.70;99.90;;;;;;5066060;28;20053;-83
2022/04/03 04:13:07;;;;;;;1.08;0.40;;;0.80;99.90;;;;;;5064426;28;20422;-82
2022/04/03 04:16:26;;;;;;;0.22;0.22;;;0.80;99.90;;;;;;5090184;28;20040;-82
2022/04/03 04:19:54;;;;;;;2.10;0.83;;;0.70;99.90;;;;;;5084058;28;20044;-82
2022/04/03 04:22:44;;;;;;;0.73;0.30;;;0.70;99.90;;;;;;5023623;28;20307;-81
2022/04/03 04:26:18;;;;;;;;;;;;;;;;;;;;;
2022/04/03 04:29:40;;;;;;;;;;;;;;;;;;;;;
2022/04/03 04:36:36;;;;;;;0.28;0.20;;;0.70;99.90;;;;;;5093636;28;20451;-82
2022/04/03 04:40:04;;;;;;;0.57;0.30;;;0.60;99.90;;;;;;5076884;28;20079;-82
2022/04/03 04:42:55;;;;;;;1.75;0.30;;;0.60;99.90;;;;;;5060136;28;20111;-83
2022/04/03 04:46:08;;;;;;;0.35;0.20;;;0.60;99.90;;;;;;5077890;28;20105;-82
2022/04/03 04:49:32;;;;;;;0.50;0.40;;;0.60;99.90;;;;;;5075616;28;20167;-83
2022/04/03 04:52:45;;;;;;;0.50;0.40;;;0.50;99.90;;;;;;5085543;28;20173;-82
2022/04/03 04:56:10;;;;;;;0.98;0.40;;;0.60;99.90;;;;;;5075280;28;20455;-82
2022/04/03 04:59:35;;;;;;;0.30;0.30;;;0.20;99.90;;;;;;5080665;28;20040;-82
2022/04/03 05:02:46;;;;;;;0.77;0.40;;;0.50;99.90;;;;;;5063871;28;20536;-82
2022/04/03 05:05:51;;;;;;;0.57;0.40;;;0.50;99.90;;;;;;5081065;28;20057;-83
2022/04/03 05:08:36;;;;;;;2.05;0.55;;;0.40;99.90;;;;;;5056650;28;20149;-84
2022/04/03 05:11:37;;;;;;;;;;;;;;;;;;;;;
2022/04/03 05:14:34;;;;;;;0.65;0.60;;;0.40;99.90;;;;;;5063885;28;20451;-83
2022/04/03 05:17:51;;;;;;;5.03;0.65;;;0.60;99.90;;;;;;5062128;28;20048;-84
2022/04/03 05:21:04;;;;;;;;;;;;;;;;;;;;;
2022/04/03 05:23:54;;;;;;;1.25;0.40;;;-0.20;99.90;;;;;;5067535;28;20132;-83
2022/04/03 05:26:54;;;;;;;3.35;0.40;;;1.00;99.90;;;;;;5079437;28;20500;-84
2022/04/03 05:29:55;;;;;;;0.30;0.30;;;0.70;99.90;;;;;;5070256;28;20044;-83
2022/04/03 05:32:58;;;;;;;0.30;0.30;;;0.70;99.90;;;;;;5064692;28;20043;-84
2022/04/03 05:35:57;;;;;;;0.22;0.17;;;0.80;99.90;;;;;;5056046;28;20077;-84
2022/04/03 05:38:52;;;;;;;0.47;0.20;;;0.80;99.90;;;;;;5092936;28;20082;-84
2022/04/03 05:41:54;;;;;;;;;;;;;;;;;;;;;
2022/04/03 05:44:54;;;;;;;0.52;0.20;;;0.80;99.90;;;;;;5074099;28;20084;-83
2022/04/03 05:48:08;;;;;;;0.73;0.30;;;0.40;99.90;;;;;;5089599;28;20089;-83
2022/04/03 05:51:13;;;;;;;0.47;0.30;;;0.90;99.90;;;;;;5087829;28;20441;-83
2022/04/03 05:54:14;;;;;;;1.00;0.30;;;0.90;99.90;;;;;;5025273;28;20103;-83
2022/04/03 05:57:15;;;;;;;1.80;0.28;;;0.90;99.90;;;;;;5087237;28;20042;-83
2022/04/03 06:00:15;;;;;;;1.52;0.30;;;0.90;99.90;;;;;;5067063;28;20044;-83
2022/04/03 06:03:15;;;;;;;0.68;0.30;;;1.00;99.90;;;;;;5086062;28;20074;-83
2022/04/03 06:06:04;;;;;;;;;;;;;;;;;;;;;
2022/04/03 06:09:17;;;;;;;;;;;;;;;;;;;;;
2022/04/03 06:12:15;;;;;;;0.93;0.40;;;1.00;99.90;;;;;;5073806;28;20051;-84
2022/04/03 06:15:16;;;;;;;0.68;0.30;;;1.10;99.90;;;;;;5066058;28;20083;-84
2022/04/03 06:18:20;;;;;;;0.63;0.40;;;1.60;99.90;;;;;;5092881;28;20036;-84
2022/04/03 06:21:34;;;;;;;2.65;0.30;;;0.90;99.90;;;;;;5003658;28;20052;-85
2022/04/03 06:24:39;;;;;;;0.55;0.40;;;1.30;99.90;;;;;;4990013;28;20206;-84
2022/04/03 06:27:37;;;;;;;0.40;0.40;;;1.30;99.90;;;;;;4984005;28;20128;-84
2022/04/03 06:31:00;;;;;;;;;;;;;;;;;;;;;
2022/04/03 06:34:21;;;;;;;0.30;0.30;;;1.30;99.90;;;;;;4993082;28;20541;-84
2022/04/03 06:37:07;;;;;;;;;;;;;;;;;;;;;
2022/04/03 06:40:18;;;;;;;;;;;;;;;;;;;;;
2022/04/03 06:42:52;;;;;;;0.57;0.43;;;1.50;99.90;;;;;;5064906;28;20056;-83
2022/04/03 06:45:21;;;;;;;1.73;0.73;;;1.70;99.90;;;;;;5069362;28;20044;-84
2022/04/03 06:48:05;;;;;;;4.78;0.50;;;1.90;99.90;;;;;;5050574;28;20439;-86
2022/04/03 06:50:53;;;;;;;1.07;0.50;;;2.20;99.90;;;;;;5063866;28;20045;-85
2022/04/03 06:53:51;;;;;;;7.03;0.80;;;2.40;99.90;;;;;;5046475;28;20287;-84
2022/04/03 06:57:06;;;;;;;;;;;;;;;;;;;;;
2022/04/03 07:00:10;;;;;;;3.05;0.52;;;3.00;99.90;;;;;;5061542;28;20805;-85
2022/04/03 07:03:22;;;;;;;1.25;0.70;;;3.20;99.90;;;;;;5043683;28;20045;-84
2022/04/03 07:06:18;;;;;;;2.10;1.08;;;3.30;99.90;;;;;;5045048;28;20076;-83
2022/04/03 07:09:22;;;;;;;1.17;0.70;;;3.60;99.90;;;;;;5046851;28;20051;-84
2022/04/03 07:12:12;;;;;;;1.00;0.60;;;3.50;99.90;;;;;;5059461;28;20090;-83
2022/04/03 07:15:08;;;;;;;3.53;0.90;;;4.10;99.90;;;;;;5061887;28;20045;-85
2022/04/03 07:18:18;;;;;;;4.43;0.60;;;4.30;99.90;;;;;;5069958;28;20084;-84
2022/04/03 07:24:43;;;;;;;2.28;0.60;;;4.60;99.90;;;;;;5066564;28;20491;-84
2022/04/03 07:27:37;;;;;;;1.30;0.52;;;4.70;99.90;;;;;;5025318;28;20568;-85
2022/04/03 07:30:23;;;;;;;3.03;0.50;;;5.10;99.90;;;;;;4954919;28;20135;-83
2022/04/03 07:32:55;;;;;;;2.58;0.45;;;4.60;99.90;;;;;;4962418;28;20058;-83
2022/04/03 07:35:37;;;;;;;1.50;0.45;;;5.00;99.90;;;;;;4945748;29;20055;-83
2022/04/03 07:38:09;;;;;;;1.98;0.57;;;5.20;99.90;;;;;;4937932;29;20055;-83
2022/04/03 07:40:49;;;;;;;1.00;0.35;;;5.30;99.90;;;;;;4960143;28;20102;-85
2022/04/03 07:43:17;;;;;;;0.77;0.50;;;6.00;99.90;;;;;;4928928;28;20050;-83
2022/04/03 07:50:04;;;;;;;1.27;0.45;;;5.70;99.90;;;;;;4958961;28;20054;-83
2022/04/03 07:52:42;;;;;;;1.00;0.28;;;5.00;99.90;;;;;;4953556;28;20069;-84
2022/04/03 07:55:17;;;;;;;0.98;0.22;;;5.90;99.90;;;;;;4946259;28;20047;-84
2022/04/03 07:57:48;;;;;;;0.80;0.32;;;5.90;99.90;;;;;;4940681;29;20242;-84
2022/04/03 08:00:43;;;;;;;3.17;0.50;;;6.20;99.90;;;;;;4952584;28;20155;-85
2022/04/03 08:03:18;;;;;;;2.45;0.60;;;6.00;99.90;;;;;;4950517;28;20178;-84
2022/04/03 08:06:33;;;;;;;2.17;0.50;;;6.40;99.90;;;;;;4962877;28;20058;-83
2022/04/03 08:09:07;;;;;;;0.95;0.63;;;6.70;99.90;;;;;;5050929;28;20414;-83
2022/04/03 08:11:49;;;;;;;1.83;0.30;;;6.90;99.90;;;;;;5045169;28;20575;-84
2022/04/03 08:14:19;;;;;;;1.40;0.40;;;7.00;99.90;;;;;;5057206;28;20052;-83
2022/04/03 08:16:58;;;;;;;1.40;0.50;;;7.30;99.90;;;;;;5044355;28;20124;-83
2022/04/03 08:19:33;;;;;;;1.77;0.63;;;7.40;99.90;;;;;;5062404;28;20049;-82
2022/04/03 08:22:08;;;;;;;2.08;0.50;;;7.30;99.90;;;;;;5051825;28;20155;-80
2022/04/03 08:24:43;;;;;;;4.53;0.60;;;7.30;99.90;;;;;;5053040;28;20072;-82
2022/04/03 08:27:47;;;;;;;1.70;0.30;;;7.20;99.90;;;;;;5034454;28;20044;-82
2022/04/03 08:30:29;;;;;;;1.52;0.40;;;7.00;99.90;;;;;;5032472;28;20083;-82
2022/04/03 08:33:10;;;;;;;2.97;0.40;;;7.00;99.90;;;;;;5047865;28;20048;-83
2022/04/03 08:36:03;;;;;;;7.32;1.23;;;7.20;99.90;;;;;;5048906;28;20048;-83
2022/04/03 08:39:28;;;;;;;1.73;0.52;;;7.30;99.90;;;;;;5051473;28;20512;-83
2022/04/03 08:42:39;;;;;;;4.25;1.00;;;7.60;99.90;;;;;;5055733;28;20051;-82
2022/04/03 08:45:43;;;;;;;5.15;0.50;;;7.50;99.90;;;;;;5058835;28;20055;-82
2022/04/03 08:48:47;;;;;;;0.52;0.35;;;7.80;99.90;;;;;;5060704;28;20155;-85
2022/04/03 08:51:55;;;;;;;;;;;;;;;;;;;;;
2022/04/03 08:54:48;;;;;;;2.97;0.35;;;8.30;99.90;;;;;;5063392;28;20044;-83
2022/04/03 08:57:56;;;;;;;;;;;;;;;;;;;;;
2022/04/03 09:01:16;;;;;;;;;;;;;;;;;;;;;
2022/04/03 09:04:17;;;;;;;2.17;0.40;;;7.90;99.90;;;;;;5037211;28;20053;-82
2022/04/03 09:07:23;;;;;;;1.80;0.30;;;8.10;99.90;;;;;;5044403;28;20084;-83
2022/04/03 09:10:24;;;;;;;7.53;0.30;;;8.30;99.90;;;;;;5063181;28;20112;-87
2022/04/03 09:12:52;;;;;;;2.35;0.50;;;8.50;99.90;;;;;;5053008;28;20053;-83
2022/04/03 09:15:22;;;;;;;2.15;0.30;;;8.70;99.90;;;;;;5064399;28;20112;-83
2022/04/03 09:17:59;;;;;;;0.30;0.30;;;8.60;99.90;;;;;;5045341;28;20048;-83
2022/04/03 09:20:43;;;;;;;;;;;;;;;;;;;;;
2022/04/03 09:23:18;;;;;;;1.35;0.30;;;9.20;99.90;;;;;;5050804;28;20136;-83
2022/04/03 09:25:52;;;;;;;0.30;0.20;;;9.10;99.90;;;;;;5053880;28;20119;-85
2022/04/03 09:28:22;;;;;;;1.17;0.30;;;9.10;99.90;;;;;;5060970;28;20128;-84
2022/04/03 09:30:51;;;;;;;0.60;0.40;;;9.10;99.90;;;;;;5056827;28;20146;-84
2022/04/03 09:33:25;;;;;;;1.33;0.30;;;9.20;99.90;;;;;;5020067;28;20096;-84
2022/04/03 09:36:04;;;;;;;1.05;0.38;;;9.40;99.90;;;;;;5055330;28;20045;-84
2022/04/03 09:39:15;;;;;;;1.25;0.28;;;9.10;99.90;;;;;;5072677;28;20072;-84
2022/04/03 09:42:00;;;;;;;0.40;0.30;;;9.00;99.90;;;;;;5064786;28;20079;-84
2022/04/03 09:44:38;;;;;;;1.42;0.30;;;9.40;99.90;;;;;;5038596;28;20408;-84
2022/04/03 09:47:33;;;;;;;0.52;0.20;;;9.20;99.90;;;;;;5073258;28;20079;-82
2022/04/03 09:50:07;;;;;;;0.63;0.20;;;9.40;99.90;;;;;;5048516;28;20128;-83
2022/04/03 09:52:54;;;;;;;0.43;0.20;;;9.40;99.90;;;;;;5067680;28;20086;-84
2022/04/03 09:55:28;;;;;;;1.08;0.47;;;9.70;99.90;;;;;;5061525;28;20044;-82
2022/04/03 09:58:13;;;;;;;0.70;0.25;;;9.70;99.90;;;;;;5047730;28;20047;-83
2022/04/03 10:00:42;;;;;;;0.75;0.30;;;9.60;99.90;;;;;;5054236;28;20040;-82
2022/04/03 10:03:13;;;;;;;1.40;0.30;;;9.50;99.90;;;;;;5052299;28;20757;-82
2022/04/03 10:05:46;;;;;;;1.52;0.40;;;9.70;99.90;;;;;;5072407;28;20093;-82
2022/04/03 10:08:17;;;;;;;1.95;0.52;;;9.70;99.90;;;;;;5054763;28;20115;-83
2022/04/03 10:10:50;;;;;;;1.35;0.30;;;10.00;99.90;;;;;;5045916;28;20045;-83
2022/04/03 10:13:23;;;;;;;2.78;0.22;;;9.80;99.90;;;;;;5054452;28;20052;-84
2022/04/03 10:15:52;;;;;;;0.50;0.20;;;9.90;99.90;;;;;;5063328;28;20040;-82
2022/04/03 10:18:20;;;;;;;1.13;0.30;;;10.00;99.90;;;;;;5036354;28;20099;-82
2022/04/03 10:20:52;;;;;;;2.70;0.40;;;10.00;99.90;;;;;;5053313;28;20128;-83
2022/04/03 10:23:28;;;;;;;2.25;0.43;;;10.20;99.90;;;;;;5055786;28;20040;-83
2022/04/03 10:26:06;;;;;;;;;;;10.10;99.90;;;;;;5036206;28;20041;-83
2022/04/03 10:28:45;;;;;;;1.63;0.35;;;9.90;99.90;;;;;;5060099;28;20401;-82
2022/04/03 10:31:16;;;;;;;4.75;0.45;;;9.70;99.90;;;;;;5071131;28;20071;-84
2022/04/03 10:33:52;;;;;;;0.95;0.50;;;10.00;99.90;;;;;;5052835;28;20060;-85
2022/04/03 10:36:34;;;;;;;1.25;0.40;;;10.20;99.90;;;;;;5048890;28;20048;-84
2022/04/03 10:39:10;;;;;;;0.35;0.15;;;10.10;99.90;;;;;;5070516;28;20052;-84
2022/04/03 10:41:43;;;;;;;1.00;0.30;;;9.90;99.90;;;;;;5069574;28;20047;-83
2022/04/03 10:44:22;;;;;;;0.50;0.20;;;9.70;99.90;;;;;;5038774;28;20033;-84
2022/04/03 10:47:08;;;;;;;1.20;0.20;;;9.50;99.90;;;;;;5071549;28;20087;-84
2022/04/03 10:50:01;;;;;;;1.08;0.30;;;9.20;99.90;;;;;;5064111;28;20048;-85
2022/04/03 10:52:45;;;;;;;1.58;0.20;;;8.50;99.90;;;;;;5039982;28;20071;-83
2022/04/03 10:55:25;;;;;;;0.35;0.20;;;8.40;99.90;;;;;;5050146;28;20094;-85
2022/04/03 10:58:02;;;;;;;0.70;0.40;;;8.00;99.90;;;;;;5033754;28;20048;-84
2022/04/03 11:00:40;;;;;;;1.13;0.20;;;7.70;99.90;;;;;;5056019;28;20113;-83
2022/04/03 11:03:23;;;;;;;0.32;0.20;;;7.70;99.90;;;;;;5053068;28;20079;-85
2022/04/03 11:05:53;;;;;;;2.17;0.20;;;7.40;99.90;;;;;;5054158;28;20070;-82
2022/04/03 11:09:01;;;;;;;0.50;0.17;;;7.10;99.90;;;;;;5053541;28;20048;-85
2022/04/03 11:12:23;;;;;;;0.57;0.30;;;7.10;99.90;;;;;;5045098;28;20115;-84
2022/04/03 11:15:24;;;;;;;0.30;0.20;;;7.10;99.90;;;;;;5063325;28;20048;-83
2022/04/03 11:18:48;;;;;;;1.27;0.20;;;7.30;99.90;;;;;;5066645;28;20119;-83
2022/04/03 11:22:08;;;;;;;1.52;0.38;;;7.40;99.90;;;;;;5070138;28;20059;-83
2022/04/03 11:25:11;;;;;;;1.20;0.38;;;7.60;99.90;;;;;;5070921;28;20040;-82
2022/04/03 11:28:23;;;;;;;;;;;;;;;;;;;;;
2022/04/03 11:31:14;;;;;;;2.05;0.30;;;7.90;99.90;;;;;;5033419;28;20060;-83
2022/04/03 11:34:08;;;;;;;0.30;0.30;;;8.20;99.90;;;;;;5060984;28;20056;-83
2022/04/03 11:37:13;;;;;;;0.57;0.40;;;8.30;99.90;;;;;;5050080;28;20120;-83
2022/04/03 11:40:22;;;;;;;0.75;0.20;;;8.70;99.90;;;;;;5040092;28;20123;-83
2022/04/03 11:43:40;;;;;;;;;;;;;;;;;;;;;
2022/04/03 11:46:41;;;;;;;0.38;0.25;;;9.10;99.90;;;;;;5038441;28;20047;-85
2022/04/03 11:49:52;;;;;;;;;;;;;;;;;;;;;
2022/04/03 11:52:35;;;;;;;0.38;0.22;;;9.40;99.90;;;;;;5027844;28;20456;-84
2022/04/03 11:55:02;;;;;;;1.75;0.30;;;9.70;99.90;;;;;;5043687;28;20041;-82
2022/04/03 11:57:33;;;;;;;3.65;0.40;;;10.00;99.90;;;;;;5034770;28;20402;-82
2022/04/03 12:00:11;;;;;;;0.38;0.25;;;10.10;99.90;;;;;;5040862;28;20068;-83
2022/04/03 12:02:43;;;;;;;1.67;0.40;;;10.10;99.90;;;;;;5050539;28;20150;-81
2022/04/03 12:05:41;;;;;;;0.28;0.28;;;10.20;99.90;;;;;;5007289;28;20049;-83
2022/04/03 12:08:18;;;;;;;2.20;0.20;;;9.90;99.90;;;;;;5049374;28;20063;-83
2022/04/03 12:11:37;;;;;;;0.68;0.20;;;9.90;99.90;;;;;;5025582;28;20506;-83
2022/04/03 12:14:26;;;;;;;0.65;0.30;;;9.80;99.90;;;;;;5043954;28;20124;-84
2022/04/03 12:17:15;;;;;;;5.03;0.35;;;9.80;99.90;;;;;;5049822;28;20051;-83
2022/04/03 12:20:00;;;;;;;1.88;0.30;;;9.90;99.90;;;;;;5048743;28;20049;-83
2022/04/03 12:22:28;;;;;;;1.45;0.30;;;9.80;99.90;;;;;;5048796;28;20056;-84
2022/04/03 12:25:11;;;;;;;1.02;0.40;;;9.60;99.90;;;;;;5050210;28;20413;-82
2022/04/03 12:27:51;;;;;;;1.47;0.40;;;9.50;99.90;;;;;;5045139;28;20502;-85
2022/04/03 12:30:39;;;;;;;0.43;0.30;;;9.20;99.90;;;;;;5040450;28;20280;-86
2022/04/03 12:33:24;;;;;;;1.85;0.40;;;9.50;99.90;;;;;;5035596;28;20048;-83
2022/04/03 12:36:18;;;;;;;1.83;0.45;;;9.70;99.90;;;;;;5018727;28;20041;-82
2022/04/03 12:39:18;;;;;;;2.03;0.40;;;9.90;99.90;;;;;;5046607;28;20102;-83
2022/04/03 12:42:07;;;;;;;1.58;0.30;;;10.00;99.90;;;;;;5044337;28;20109;-80
2022/04/03 12:45:15;;;;;;;3.05;0.50;;;10.00;99.90;;;;;;5048541;28;20525;-82
2022/04/03 12:48:09;;;;;;;0.20;0.20;;;10.20;99.90;;;;;;5052645;28;20040;-81
2022/04/03 12:50:46;;;;;;;0.40;0.20;;;10.80;98.00;;;;;;5069165;28;20131;-81
2022/04/03 12:53:33;;;;;;;1.35;0.30;;;10.90;99.60;;;;;;5072163;28;20068;-81
2022/04/03 12:59:57;;;;;;;0.70;0.20;;;11.40;95.90;;;;;;5075401;28;20499;-84
2022/04/03 13:02:45;;;;;;;2.08;0.30;;;11.20;96.20;;;;;;5066085;28;20053;-82
2022/04/03 13:05:44;;;;;;;4.75;0.38;;;10.90;95.90;;;;;;5075196;28;20044;-84
2022/04/03 13:08:17;;;;;;;0.75;0.50;;;10.80;97.60;;;;;;5066417;28;20040;-84
2022/04/03 13:11:12;;;;;;;1.92;0.20;;;10.40;99.40;;;;;;5053093;28;20036;-83
2022/04/03 13:14:09;;;;;;;1.13;0.25;;;10.60;98.90;;;;;;5051659;28;20056;-83
2022/04/03 13:17:13;;;;;;;1.83;0.30;;;10.90;99.90;;;;;;5051526;28;20053;-83
2022/04/03 13:20:34;;;;;;;;;;;;;;;;;;;;;
2022/04/03 13:23:36;;;;;;;0.80;0.30;;;11.50;96.10;;;;;;5062614;28;20512;-82
2022/04/03 13:26:26;;;;;;;;;;;;;;;;;;;;;
2022/04/03 13:29:38;;;;;;;1.58;0.38;;;11.70;93.60;;;;;;5044252;28;20132;-83
2022/04/03 13:32:35;;;;;;;1.58;0.40;;;12.20;93.80;;;;;;5039642;28;20064;-83
2022/04/03 13:35:39;;;;;;;1.13;0.50;;;11.70;92.80;;;;;;5031913;28;20044;-83
2022/04/03 13:38:42;;;;;;;0.20;0.20;;;11.30;92.20;;;;;;5059451;28;20117;-84
2022/04/03 13:45:56;;;;;;;2.35;0.40;;;11.60;94.80;;;;;;5063937;28;20072;-83
2022/04/03 13:48:47;;;;;;;7.70;0.40;;;11.90;92.70;;;;;;5059564;28;20080;-83
2022/04/03 13:51:46;;;;;;;0.88;0.30;;;11.50;92.50;;;;;;5065220;28;20128;-83
2022/04/03 13:54:29;;;;;;;3.03;0.50;;;11.20;94.80;;;;;;5054145;28;20063;-82
2022/04/03 13:57:50;;;;;;;5.72;0.50;;;11.20;98.90;;;;;;5069816;28;20055;-83
2022/04/03 14:00:50;;;;;;;0.80;0.30;;;11.20;99.90;;;;;;5073213;28;20050;-83
2022/04/03 14:04:03;;;;;;;2.05;0.38;;;11.20;99.90;;;;;;5059342;28;20190;-83
2022/04/03 14:06:55;;;;;;;0.50;0.38;;;10.90;98.50;;;;;;5059413;28;20115;-83
2022/04/03 14:10:06;;;;;;;1.45;0.30;;;10.40;98.60;;;;;;5060102;28;20044;-83
2022/04/03 14:12:58;;;;;;;2.75;0.60;;;10.40;99.90;;;;;;5061079;28;20460;-82
2022/04/03 14:16:08;;;;;;;1.00;0.50;;;10.20;99.90;;;;;;5047054;28;20401;-82
2022/04/03 14:19:07;;;;;;;1.70;0.40;;;10.10;99.90;;;;;;5024406;28;20444;-83
2022/04/03 14:22:07;;;;;;;;;;;;;;;;;;;;;
2022/04/03 14:24:55;;;;;;;;;;;10.20;97.50;;;;;;5036406;28;20401;-83
2022/04/03 14:27:56;;;;;;;1.38;0.40;;;10.00;98.80;;;;;;5056763;28;19971;-82
2022/04/03 14:31:07;;;;;;;;;;;;;;;;;;;;;
2022/04/03 14:34:09;;;;;;;4.43;0.60;;;9.50;99.90;;;;;;5058030;28;20404;-82
2022/04/03 14:37:01;;;;;;;9.90;0.82;;;9.80;99.90;;;;;;5059553;28;20481;-82
2022/04/03 14:40:09;;;;;;;3.15;0.50;;;9.80;99.80;;;;;;5069097;28;20501;-82
2022/04/03 14:46:12;;;;;;;3.42;0.73;;;9.40;99.90;;;;;;5062247;28;20151;-82
2022/04/03 14:49:17;;;;;;;0.70;0.40;;;9.70;99.90;;;;;;5038595;28;20140;-82
2022/04/03 14:52:24;;;;;;;1.90;0.63;;;9.80;99.90;;;;;;5067421;28;20507;-83
2022/04/03 14:55:24;;;;;;;2.67;0.68;;;9.70;99.90;;;;;;5063751;28;20110;-82
2022/04/03 14:58:21;;;;;;;;;;;;;;;;;;;;;
2022/04/03 15:01:14;;;;;;;1.27;0.65;;;9.60;99.90;;;;;;5065719;28;20047;-83
2022/04/03 15:04:08;;;;;;;0.85;0.47;;;9.50;99.90;;;;;;5018829;28;20495;-83
2022/04/03 15:10:26;;;;;;;2.35;1.45;;;9.20;99.90;;;;;;5056781;28;20460;-83
2022/04/03 15:13:36;;;;;;;;;;;;;;;;;;;;;
2022/04/03 15:16:44;;;;;;;1.63;0.70;;;9.40;99.90;;;;;;5059760;28;20052;-83
2022/04/03 15:19:55;;;;;;;1.08;0.50;;;9.30;99.90;;;;;;5054437;28;20037;-84
2022/04/03 15:23:10;;;;;;;1.40;0.50;;;9.20;99.90;;;;;;5067267;28;20049;-84
2022/04/03 15:26:16;;;;;;;2.40;0.80;;;9.40;99.90;;;;;;5030254;28;20041;-84
2022/04/03 15:29:43;;;;;;;3.45;1.20;;;9.60;99.90;;;;;;5010864;28;20045;-85
2022/04/03 15:32:40;;;;;;;0.57;0.47;;;9.30;99.90;;;;;;5019440;28;20486;-85
2022/04/03 15:35:52;;;;;;;0.77;0.55;;;9.00;99.90;;;;;;5036017;28;20045;-85
2022/04/03 15:39:05;;;;;;;;;;;;;;;;;;;;;
2022/04/03 15:41:43;;;;;;;3.45;0.82;;;9.00;99.90;;;;;;5047494;28;20517;-85
2022/04/03 15:44:29;;;;;;;2.58;0.60;;;9.00;99.90;;;;;;5031543;28;20152;-84
2022/04/03 15:47:03;;;;;;;3.40;0.82;;;9.00;99.90;;;;;;5023094;28;20151;-84
2022/04/03 15:57:23;;;;;;;3.80;0.50;;;8.40;99.90;;;;;;5033333;28;20052;-83
2022/04/03 16:00:25;;;;;;;2.08;0.40;;;8.40;99.90;;;;;;5038356;28;20091;-85
2022/04/03 16:07:09;;;;;;;1.83;0.40;;;8.30;99.90;;;;;;5049530;28;20043;-85
2022/04/03 16:10:28;;;;;;;1.65;0.50;;;8.30;99.90;;;;;;5059439;28;20052;-86
2022/04/03 16:13:05;;;;;;;1.08;0.40;;;8.70;99.90;;;;;;5065321;28;20119;-84
2022/04/03 16:15:57;;;;;;;2.17;0.75;;;8.40;99.90;;;;;;5032119;28;20519;-84
2022/04/03 16:19:04;;;;;;;1.80;0.50;;;8.50;99.90;;;;;;5026474;28;20060;-84
2022/04/03 16:21:51;;;;;;;;;;;;;;;;;;;;;
2022/04/03 16:24:50;;;;;;;;;;;;;;;;;;;;;
2022/04/03 16:28:00;;;;;;;5.22;0.70;;;8.20;99.90;;;;;;5063948;28;20094;-83
2022/04/03 16:31:09;;;;;;;0.95;0.57;;;7.60;99.90;;;;;;5055961;28;20541;-83
2022/04/03 16:34:09;;;;;;;1.52;0.68;;;7.90;99.90;;;;;;5071000;28;20106;-84
2022/04/03 16:37:44;;;;;;;1.77;0.50;;;8.00;99.90;;;;;;5066459;28;20098;-83
2022/04/03 16:40:17;;;;;;;3.35;0.85;;;7.80;99.90;;;;;;5037873;28;20140;-83
2022/04/03 16:42:57;;;;;;;1.77;0.77;;;7.80;99.90;;;;;;5048010;28;20045;-84
2022/04/03 16:45:42;;;;;;;3.58;1.13;;;8.00;99.90;;;;;;5020208;28;20135;-83
2022/04/03 16:48:45;;;;;;;2.30;0.73;;;8.00;99.90;;;;;;5035587;28;20513;-83
2022/04/03 16:51:57;;;;;;;2.17;0.52;;;8.10;99.90;;;;;;5044375;28;20511;-83
2022/04/03 16:55:08;;;;;;;;;;;;;;;;;;;;;
2022/04/03 17:01:23;;;;;;;2.83;0.50;;;7.70;99.90;;;;;;5036171;28;20042;-84
2022/04/03 17:04:22;;;;;;;1.20;0.40;;;7.50;99.90;;;;;;5041963;28;20393;-83
2022/04/03 17:07:27;;;;;;;1.35;0.40;;;7.60;99.90;;;;;;5028810;28;20045;-84
2022/04/03 17:10:27;;;;;;;1.15;0.60;;;7.50;99.90;;;;;;5037764;28;20045;-84
2022/04/03 17:13:35;;;;;;;;;;;;;;;;;;;;;
2022/04/03 17:16:48;;;;;;;;;;;;;;;;;;;;;
2022/04/03 17:19:41;;;;;;;;;;;;;;;;;;;;;
2022/04/03 17:22:36;;;;;;;2.28;0.75;;;7.00;99.90;;;;;;5024492;28;20045;-84
2022/04/03 17:25:56;;;;;;;;;;;;;;;;;;;;;
2022/04/03 17:29:18;;;;;;;;;;;;;;;;;;;;;
2022/04/03 17:32:32;;;;;;;;;;;;;;;;;;;;;
2022/04/03 17:35:39;;;;;;;2.83;0.77;;;6.40;99.90;;;;;;5031493;28;20037;-83
2022/04/03 17:38:41;;;;;;;1.48;0.50;;;6.50;99.90;;;;;;5044426;28;20417;-84
2022/04/03 17:41:46;;;;;;;2.33;0.80;;;6.50;99.90;;;;;;5042243;28;20409;-84
2022/04/03 17:44:36;;;;;;;3.67;1.02;;;6.60;99.90;;;;;;5049965;28;20041;-84
2022/04/03 17:47:31;;;;;;;3.05;0.90;;;6.40;99.90;;;;;;5022881;28;20461;-83
2022/04/03 17:50:59;;;;;;;;;;;;;;;;;;;;;
2022/04/03 17:54:29;;;;;;;3.35;0.80;;;5.80;99.90;;;;;;4989021;28;20450;-86
2022/04/03 17:57:59;;;;;;;;;;;;;;;;;;;;;
2022/04/03 18:01:04;;;;;;;4.43;1.02;;;5.90;99.90;;;;;;4988422;28;20050;-84
2022/04/03 18:07:52;;;;;;;3.08;0.65;;;5.80;99.90;;;;;;4991225;28;20112;-84
2022/04/03 18:10:53;;;;;;;;;;;;;;;;;;;;;
2022/04/03 18:13:54;;;;;;;3.50;0.70;;;5.70;99.90;;;;;;4990677;28;20043;-84
2022/04/03 18:16:56;;;;;;;1.13;0.60;;;6.10;99.90;;;;;;4991482;28;20042;-84
2022/04/03 18:20:09;;;;;;;1.67;0.88;;;5.60;99.90;;;;;;4974290;28;20039;-85
2022/04/03 18:27:24;;;;;;;;;;;;;;;;;;;;;